Texhoma, Oklahoma
Current Conditions -  °F | °C
As of 9:24 AM on Thursday 23 Oct 2014 (Local Time) from KGUY Reporting Station
Haze Haze  
Wind Chill: 52°   Ceiling: 200
Heat Index: 52°   Visibility: 0.75mi
Dew Point: 51°   Wind: 5mph
Humidity: 97%   Direction: 270°W
Pressure: 30.1"   Gusts: NA
Location:  36.51°N, 101.78°W
Report Text: KGUY 231424Z AUTO 27004KT 3/4SM BR OVC002 11/11 A3010 RMK AO2 T01110106
Loading
Personal Weather Stations






























Interactive Weather Map
Tropical Storm Tracking
New forecast layout! Learn more

10-Day Weather Forecast

Advertisements
Track Severe Weather on mobile